Latest Weather Observations for Moruya Airport

IDN60901

Issued at 5:51 pm EDT Wednesday 4 March 2015 (issued every 10 minutes, with the page automatically refreshed every 10 minutes)

About weather observations | Map of Canberra area stations | Latest observations for Canberra area | Other Formats
Station Details ID: 069148 Name: MORUYA AIRPORT AWS Lat: -35.90 Lon: 150.14 Height: 4.0 m
Data from the previous 72 hours. | See also: Recent months for locations in Aust Capital Territory
Date/Time
EDT
Tmp

°C
App
Tmp
°C
Dew
Point
°C
Rel
Hum
%
Delta-T

°C
Wind Press
QNH
hPa
Press
MSL
hPa
Rain
since
9 am
mm
Dir
 
Spd
km/h
Gust
km/h
Spd
kts
Gust
kts
04/05:30pm 23.4 25.5 20.9 86 1.6 ENE 11 15 6 8 1008.4 1008.3 0.0
04/05:00pm 23.3 24.8 20.6 85 1.8 ENE 13 15 7 8 1008.6 1008.5 0.0
04/04:30pm 23.6 25.0 20.3 82 2.1 ENE 13 15 7 8 1008.7 1008.6 0.0
04/04:00pm 23.1 24.4 20.1 83 1.9 ENE 13 17 7 9 1008.9 1008.8 0.0
04/03:30pm 23.7 25.3 20.8 84 1.9 ENE 13 17 7 9 1009.2 1009.1 0.0
04/03:00pm 23.3 24.4 20.4 84 1.9 E 15 17 8 9 1009.9 1009.8 0.0
04/02:30pm 23.0 23.8 20.7 87 1.5 ESE 17 19 9 10 1010.5 1010.4 0.0
04/02:00pm 23.1 24.2 20.4 85 1.8 ESE 15 19 8 10 1010.9 1010.8 0.0
04/01:30pm 22.8 23.3 20.0 84 1.8 ESE 17 19 9 10 1011.2 1011.1 0.0
04/01:00pm 23.0 24.0 20.3 85 1.7 ESE 15 19 8 10 1011.7 1011.6 0.0
04/12:30pm 23.2 24.2 20.2 83 1.9 ESE 15 19 8 10 1012.3 1012.2 0.0
04/12:00pm 22.3 22.6 18.7 80 2.3 SE 15 19 8 10 1012.7 1012.6 0.0
04/11:30am 22.7 22.9 18.5 77 2.6 SE 15 19 8 10 1013.2 1013.1 0.0
04/11:00am 22.4 22.4 17.3 73 3.1 SE 13 17 7 9 1013.4 1013.3 0.0
04/10:30am 22.8 22.8 18.1 75 2.9 ESE 15 19 8 10 1013.7 1013.6 0.0
04/10:00am 22.8 23.8 18.6 77 2.6 ESE 11 15 6 8 1013.7 1013.6 0.0
04/09:30am 22.4 24.2 18.4 78 2.5 SSW 6 7 3 4 1013.9 1013.8 0.0
04/09:00am 21.4 22.7 17.6 79 2.3 SW 7 9 4 5 1013.8 1013.7 0.0
04/08:30am 20.2 21.0 17.4 84 1.7 SW 9 11 5 6 1013.6 1013.5 0.0
04/08:00am 19.4 21.0 17.9 91 0.9 SW 6 9 3 5 1013.5 1013.4 0.0
04/07:30am 18.4 21.2 17.9 97 0.3 CALM 0 0 0 0 1013.4 1013.3 0.0
04/07:00am 18.2 20.2 17.9 98 0.2 W 4 7 2 4 1012.9 1012.8 0.0
04/06:30am 18.2 20.5 17.7 97 0.3 W 2 6 1 3 1012.6 1012.5 0.0
04/05:30am 18.6 21.3 17.8 95 0.5 CALM 0 0 0 0 1012.7 1012.6 0.0
04/05:00am 18.6 20.8 17.4 93 0.7 W 2 6 1 3 1012.9 1012.8 0.0
04/04:30am 18.7 20.9 17.4 92 0.8 W 2 6 1 3 1013.0 1012.9 0.0
04/04:00am 18.7 20.4 17.2 91 0.9 W 4 7 2 4 1013.2 1013.1 0.0
04/03:30am 18.7 19.9 16.8 89 1.1 WSW 6 9 3 5 1013.4 1013.3 0.0
04/03:00am 18.8 20.0 16.8 88 1.2 WSW 6 9 3 5 1013.7 1013.6 0.0
04/02:30am 19.0 19.9 16.6 86 1.4 W 7 11 4 6 1014.0 1013.9 0.0
04/02:00am 19.0 19.5 16.6 86 1.4 WSW 9 13 5 7 1014.4 1014.3 0.0
04/01:30am 18.8 19.8 16.8 88 1.2 WSW 7 11 4 6 1014.8 1014.7 0.0
04/01:00am 18.8 20.0 16.8 88 1.2 W 6 13 3 7 1015.0 1014.9 0.0
04/12:30am 19.2 19.9 17.0 87 1.3 WSW 9 15 5 8 1015.2 1015.1 0.0
 
Date/Time
EDT
Tmp

°C
App
Tmp
°C
Dew
Point
°C
Rel
Hum
%
Delta-T

°C
Wind Press
QNH
hPa
Press
MSL
hPa
Rain
since
9 am
mm
Dir
 
Spd
km/h
Gust
km/h
Spd
kts
Gust
kts
03/11:30pm 19.3 20.1 17.3 88 1.2 WSW 9 13 5 7 1015.5 1015.4 0.0
03/11:00pm 19.3 19.6 16.9 86 1.4 SW 11 17 6 9 1015.6 1015.5 0.0
03/10:30pm 19.3 19.6 17.1 87 1.3 WSW 11 15 6 8 1015.8 1015.7 0.0
03/10:00pm 19.2 20.0 17.3 89 1.2 W 9 13 5 7 1016.0 1015.9 0.0
03/09:30pm 19.7 20.7 17.7 88 1.2 WSW 9 11 5 6 1016.0 1015.9 0.0
03/09:00pm 20.1 21.1 17.7 86 1.5 SW 9 13 5 7 1015.9 1015.8 0.0
03/08:30pm 20.4 21.1 18.0 86 1.5 SSW 11 15 6 8 1015.5 1015.4 0.0
03/08:00pm 20.4 20.7 17.8 85 1.6 SSW 13 17 7 9 1015.0 1014.9 0.0
03/07:30pm 20.8 21.0 17.6 82 2.0 S 13 19 7 10 1014.9 1014.8 0.0
03/07:00pm 21.2 20.4 17.2 78 2.4 S 17 24 9 13 1014.7 1014.6 0.0
03/06:30pm 22.2 21.7 17.8 76 2.7 S 17 22 9 12 1014.7 1014.6 0.0
03/05:30pm 22.0 21.1 16.9 73 3.1 SSE 17 24 9 13 1014.3 1014.2 0.0
03/05:00pm 22.7 21.5 17.6 73 3.2 SSE 20 26 11 14 1014.2 1014.1 0.0
03/04:30pm 22.9 22.1 18.4 76 2.8 SSE 20 24 11 13 1014.2 1014.1 0.0
03/04:00pm 22.8 21.9 18.1 75 2.9 SSE 20 28 11 15 1014.3 1014.2 0.0
03/03:30pm 22.7 21.0 18.0 75 2.9 SSE 24 33 13 18 1014.3 1014.2 0.0
03/03:00pm 22.6 20.7 17.7 74 3.0 SSE 24 30 13 16 1014.6 1014.5 0.0
03/02:30pm 22.4 20.7 17.1 72 3.3 SSE 22 28 12 15 1015.1 1015.0 0.0
03/02:00pm 22.3 20.8 15.4 65 4.1 SSE 17 22 9 12 1015.2 1015.1 0.0
03/01:30pm 22.6 20.8 15.4 64 4.3 SSE 19 26 10 14 1015.2 1015.1 0.0
03/01:00pm 22.6 20.5 15.2 63 4.4 SSE 20 28 11 15 1015.3 1015.2 0.0
03/12:30pm 23.1 21.8 15.9 64 4.3 SSE 17 22 9 12 1015.4 1015.3 0.0
03/12:00pm 22.3 22.9 17.7 75 2.8 SE 11 17 6 9 1015.6 1015.5 0.0
03/11:30am 22.4 22.5 18.4 78 2.5 SSW 15 19 8 10 1015.9 1015.8 0.0
03/11:00am 21.6 22.2 17.8 79 2.4 SSE 11 15 6 8 1016.0 1015.9 0.0
03/10:30am 21.8 21.7 17.8 78 2.5 SW 15 19 8 10 1016.1 1016.0 0.0
03/10:00am 21.5 22.8 17.1 76 2.7 S 6 9 3 5 1015.7 1015.6 0.0
03/09:30am 20.2 20.9 17.0 82 1.9 SSW 9 13 5 7 1015.6 1015.5 0.0
03/09:00am 19.6 20.9 17.6 88 1.2 SSW 7 11 4 6 1015.3 1015.2 0.0
03/08:30am 18.4 19.5 17.1 92 0.8 SW 7 9 4 5 1015.0 1014.9 0.0
03/08:00am 17.2 19.7 17.2 100 0.0 CALM 0 6 0 3 1014.7 1014.6 0.0
03/07:30am 15.7 17.6 15.7 100 0.0 CALM 0 0 0 0 1014.1 1014.0 0.0
03/07:00am 15.2 16.9 15.2 100 0.0 CALM 0 0 0 0 1013.7 1013.6 0.0
03/06:30am 15.5 16.0 15.5 100 0.0 NNW 7 7 4 4 1013.4 1013.3 0.0
03/06:00am 15.6 17.1 15.6 100 0.0 NNW 2 6 1 3 1013.4 1013.3 0.0
03/05:30am 15.5 16.0 15.5 100 0.0 NW 7 7 4 4 1013.2 1013.1 0.0
03/05:00am 15.5 16.0 15.5 100 0.0 NW 7 7 4 4 1013.5 1013.4 0.0
03/04:30am 15.7 16.3 15.7 100 0.0 NW 7 9 4 5 1013.7 1013.6 0.0
03/04:00am 15.8 16.0 15.8 100 0.0 NNW 9 11 5 6 1013.9 1013.8 0.0
03/03:30am 15.9 16.5 15.9 100 0.0 WNW 7 9 4 5 1014.3 1014.2 0.0
03/03:00am 15.9 16.5 15.9 100 0.0 NW 7 11 4 6 1014.5 1014.4 0.0
03/02:30am 16.0 16.9 16.0 100 0.0 NW 6 9 3 5 1014.6 1014.5 0.0
03/02:00am 16.2 16.9 16.2 100 0.0 NW 7 11 4 6 1015.4 1015.3 0.0
03/01:30am 16.2 16.6 16.2 100 0.0 NW 9 11 5 6 1015.7 1015.6 0.0
03/01:00am 16.1 16.8 16.1 100 0.0 NW 7 9 4 5 1016.1 1016.0 0.0
03/12:30am 15.9 17.5 15.9 100 0.0 WNW 2 9 1 5 1016.7 1016.6 0.0
03/12:00am 16.0 17.6 16.0 100 0.0 NW 2 7 1 4 1017.0 1016.9 0.0
 
Date/Time
EDT
Tmp

°C
App
Tmp
°C
Dew
Point
°C
Rel
Hum
%
Delta-T

°C
Wind Press
QNH
hPa
Press
MSL
hPa
Rain
since
9 am
mm
Dir
 
Spd
km/h
Gust
km/h
Spd
kts
Gust
kts
02/11:30pm 16.0 16.9 16.0 100 0.0 WNW 6 9 3 5 1017.4 1017.3 0.0
02/11:00pm 16.3 18.4 16.3 100 0.0 CALM 0 0 0 0 1017.3 1017.2 0.0
02/10:30pm 16.1 18.1 16.1 100 0.0 CALM 0 0 0 0 1017.3 1017.2 0.0
02/10:00pm 16.5 17.6 16.5 100 0.0 WNW 6 7 3 4 1017.3 1017.2 0.0
02/09:30pm 16.8 17.7 16.6 99 0.1 NNW 7 9 4 5 1017.2 1017.1 0.0
02/09:00pm 17.6 18.3 17.1 97 0.3 NNW 9 11 5 6 1016.9 1016.8 0.0
02/08:30pm 17.8 19.0 17.3 97 0.3 NNW 7 11 4 6 1016.7 1016.6 0.0
02/08:00pm 18.5 19.7 17.3 93 0.7 NNW 7 11 4 6 1016.5 1016.4 0.0
02/07:30pm 19.6 20.8 17.4 87 1.3 NNW 7 11 4 6 1016.4 1016.3 0.0
02/07:00pm 20.8 21.4 17.8 83 1.8 NNE 11 15 6 8 1016.5 1016.4 0.0
02/06:30pm 21.0 21.8 17.4 80 2.2 NNE 9 13 5 7 1016.5 1016.4 0.0
02/06:00pm 21.2 22.0 17.2 78 2.4 NNE 9 11 5 6 1016.8 1016.7 0.0
02/05:30pm 21.0 21.7 17.0 78 2.4 NE 9 13 5 7 1016.5 1016.4 0.0
02/05:00pm 21.8 21.9 16.5 72 3.2 ENE 11 15 6 8 1016.9 1016.8 0.0
02/04:30pm 22.0 21.4 16.7 72 3.2 NE 15 19 8 10 1016.9 1016.8 0.0
02/04:00pm 21.7 20.7 15.5 68 3.7 ENE 15 17 8 9 1017.2 1017.1 0.0
02/03:30pm 21.7 20.5 15.1 66 3.9 ENE 15 19 8 10 1017.4 1017.3 0.0
02/03:00pm 21.3 19.9 14.5 65 4.0 E 15 17 8 9 1017.9 1017.8 0.0
02/02:30pm 21.0 19.0 13.9 64 4.1 E 17 19 9 10 1018.1 1018.0 0.0
02/02:00pm 21.3 19.4 14.2 64 4.1 E 17 19 9 10 1018.5 1018.4 0.0
02/01:30pm 21.7 19.7 13.9 61 4.5 E 17 19 9 10 1018.6 1018.5 0.0
02/01:00pm 21.6 19.7 13.0 58 4.9 E 15 19 8 10 1018.8 1018.7 0.0
02/12:30pm 21.1 18.6 11.2 53 5.5 ESE 15 20 8 11 1019.1 1019.0 0.0
02/12:00pm 21.7 20.0 12.3 55 5.3 ESE 13 19 7 10 1019.5 1019.4 0.0
02/11:30am 21.6 20.2 12.2 55 5.3 ESE 11 13 6 7 1019.7 1019.6 0.0
02/11:00am 21.6 21.7 12.7 57 5.0 SSW 4 11 2 6 1020.0 1019.9 0.0
02/10:30am 20.4 19.1 11.3 56 5.0 SSW 9 17 5 9 1019.9 1019.8 0.0
02/10:00am 18.9 17.2 11.2 61 4.2 SW 11 13 6 7 1019.8 1019.7 0.0
02/09:30am 18.4 17.8 14.5 78 2.3 SW 11 13 6 7 1020.1 1020.0 0.0
02/09:00am 16.8 15.8 13.3 80 2.0 SW 11 15 6 8 1020.0 1019.9 5.4
02/08:30am 15.8 15.4 12.9 83 1.6 W 7 13 4 7 1019.8 1019.7 5.4
02/08:00am 14.3 13.3 12.3 88 1.1 W 9 13 5 7 1019.7 1019.6 5.4
02/07:30am 12.9 11.8 12.1 95 0.4 W 9 13 5 7 1019.6 1019.5 5.4
02/07:00am 11.7 10.4 11.4 98 0.2 WSW 9 13 5 7 1019.2 1019.1 5.4
02/06:30am 12.2 10.9 11.3 94 0.5 WSW 9 13 5 7 1018.9 1018.8 5.4
02/06:00am 12.8 11.1 11.2 90 0.8 W 11 17 6 9 1018.3 1018.2 5.4
02/05:30am 12.7 11.1 11.6 93 0.6 W 11 17 6 9 1018.2 1018.1 5.4
02/05:00am 12.6 10.8 12.1 97 0.3 W 13 17 7 9 1018.0 1017.9 5.4
02/04:30am 13.0 10.6 12.5 97 0.3 W 17 24 9 13 1018.4 1018.3 5.4
02/04:00am 12.7 10.7 12.7 100 0.0 W 15 22 8 12 1017.9 1017.8 5.4
02/03:30am 12.4 11.8 12.4 100 0.0 W 7 11 4 6 1017.8 1017.7 5.4
02/03:00am 12.8 11.2 12.8 100 0.0 W 13 19 7 10 1018.3 1018.2 5.4
02/02:30am 12.1 11.0 12.1 100 0.0 W 9 11 5 6 1018.5 1018.4 5.4
02/02:00am 11.6 10.4 11.6 100 0.0 WSW 9 13 5 7 1018.6 1018.5 5.4
02/01:30am 12.0 10.9 12.0 100 0.0 W 9 11 5 6 1018.4 1018.3 5.4
02/01:00am 12.1 12.4 12.1 100 0.0 WSW 2 9 1 5 1018.3 1018.2 5.4
02/12:30am 12.7 11.8 12.7 100 0.0 WNW 9 11 5 6 1018.1 1018.0 5.4
02/12:00am 13.2 12.9 13.2 100 0.0 W 7 9 4 5 1018.0 1017.9 5.4
 
Date/Time
EDT
Tmp

°C
App
Tmp
°C
Dew
Point
°C
Rel
Hum
%
Delta-T

°C
Wind Press
QNH
hPa
Press
MSL
hPa
Rain
since
9 am
mm
Dir
 
Spd
km/h
Gust
km/h
Spd
kts
Gust
kts
01/11:30pm 14.0 13.7 13.2 95 0.4 W 7 11 4 6 1017.9 1017.8 5.4
01/11:00pm 15.1 14.7 13.0 87 1.2 SW 7 11 4 6 1017.8 1017.7 5.4
01/10:30pm 16.3 15.4 12.5 78 2.1 SSW 9 15 5 8 1017.4 1017.3 5.4
01/10:00pm 17.3 15.9 12.2 72 2.8 SSW 11 19 6 10 1017.2 1017.1 5.4
01/09:30pm 17.4 15.4 12.7 74 2.6 SSW 15 20 8 11 1016.5 1016.4 5.4
01/09:00pm 17.8 17.1 13.1 74 2.6 SSW 9 11 5 6 1015.9 1015.8 5.4
01/08:30pm 19.0 18.1 13.6 71 3.1 SSW 11 15 6 8 1015.3 1015.2 5.4
01/08:00pm 19.3 18.1 14.1 72 3.0 S 13 17 7 9 1014.7 1014.6 5.4
01/07:30pm 19.4 17.7 13.6 69 3.3 S 15 22 8 12 1013.7 1013.6 5.4
01/07:00pm 19.9 17.4 14.0 69 3.4 S 20 28 11 15 1012.9 1012.8 5.4
01/06:30pm 20.2 18.5 15.8 76 2.6 S 19 26 10 14 1012.0 1011.9 5.4
01/06:00pm 19.8 19.4 16.3 80 2.1 S 13 19 7 10 1011.3 1011.2 5.4

Latest Capital City Observations: Canberra | Sydney | Melbourne | Brisbane | Adelaide | Perth | Hobart | Darwin

Other Formats:

Comma delimited format used in spreadsheet applications
http://www.bom.gov.au/fwo/IDN60903/IDN60903.95937.axf

JavaScript Object Notation format (JSON) in row-major order
http://www.bom.gov.au/fwo/IDN60903/IDN60903.95937.json